createdAt,value
2018-04-08T00:00:01.447Z,927.70
2018-04-08T00:01:33.262Z,927.68
2018-04-08T00:03:05.078Z,927.70
2018-04-08T00:04:36.893Z,927.68
2018-04-08T00:06:08.710Z,927.69
2018-04-08T00:07:40.625Z,927.71
2018-04-08T00:09:12.342Z,927.78
2018-04-08T00:10:44.157Z,927.77
2018-04-08T00:12:15.974Z,927.78
2018-04-08T00:13:47.790Z,927.74
2018-04-08T00:15:19.606Z,927.73
2018-04-08T00:16:51.422Z,927.75
2018-04-08T00:18:23.238Z,927.77
2018-04-08T00:19:55.054Z,927.76
2018-04-08T00:21:26.869Z,927.80
2018-04-08T00:24:30.504Z,927.82
2018-04-08T00:26:02.419Z,927.80
2018-04-08T00:27:34.134Z,927.83
2018-04-08T00:29:05.950Z,927.85
2018-04-08T00:30:37.767Z,927.88
2018-04-08T00:32:09.583Z,927.85
2018-04-08T00:33:41.398Z,927.82
2018-04-08T00:35:13.215Z,927.85
2018-04-08T00:36:45.032Z,927.92
2018-04-08T00:38:16.851Z,927.90
2018-04-08T00:39:48.665Z,927.90
2018-04-08T00:41:20.481Z,927.88
2018-04-08T00:42:52.297Z,927.80
2018-04-08T00:44:24.214Z,927.84
2018-04-08T00:45:55.933Z,927.84
2018-04-08T00:47:27.746Z,927.83
2018-04-08T00:50:31.478Z,927.86
2018-04-08T00:52:03.194Z,927.78
2018-04-08T00:53:35.010Z,927.72
2018-04-08T00:55:06.826Z,927.68
2018-04-08T00:56:38.793Z,927.68
2018-04-08T00:58:10.460Z,927.68
2018-04-08T00:59:42.275Z,927.65
2018-04-08T01:01:14.091Z,927.65
2018-04-08T01:02:46.007Z,927.63
2018-04-08T01:04:17.724Z,927.63
2018-04-08T01:05:49.539Z,927.68
2018-04-08T01:07:21.354Z,927.70
2018-04-08T01:08:53.171Z,927.65
2018-04-08T01:10:24.989Z,927.64
2018-04-08T01:11:56.805Z,927.65
2018-04-08T01:13:28.618Z,927.68
2018-04-08T01:15:00.434Z,927.71
2018-04-08T01:16:32.250Z,927.69
2018-04-08T01:18:04.064Z,927.72
2018-04-08T01:19:35.880Z,927.71
2018-04-08T01:21:07.896Z,927.75
2018-04-08T01:22:39.511Z,927.75
2018-04-08T01:24:11.327Z,927.76
2018-04-08T01:25:43.142Z,927.77
2018-04-08T01:27:14.961Z,927.83
2018-04-08T01:28:46.774Z,927.85
2018-04-08T01:30:18.588Z,927.82
2018-04-08T01:31:50.403Z,927.81
2018-04-08T01:33:22.219Z,927.74
2018-04-08T01:34:54.035Z,927.79
2018-04-08T01:36:25.853Z,927.75
2018-04-08T01:37:57.665Z,927.74
2018-04-08T01:39:29.832Z,927.74
2018-04-08T01:41:01.298Z,927.75
2018-04-08T01:42:33.112Z,927.77
2018-04-08T01:44:04.929Z,927.75
2018-04-08T01:45:36.743Z,927.76
2018-04-08T01:47:08.560Z,927.73
2018-04-08T01:48:40.374Z,927.77
2018-04-08T01:50:12.500Z,927.71
2018-04-08T01:51:44.529Z,927.72
2018-04-08T01:53:15.820Z,927.70
2018-04-08T01:54:47.635Z,927.69
2018-04-08T01:56:19.451Z,927.67
2018-04-08T01:57:51.366Z,927.67
2018-04-08T01:59:23.081Z,927.69
2018-04-08T02:00:54.895Z,927.71
2018-04-08T02:02:26.712Z,927.70
2018-04-08T02:05:30.341Z,927.66
2018-04-08T02:07:02.156Z,927.66
2018-04-08T02:08:33.973Z,927.64
2018-04-08T02:10:05.788Z,927.66
2018-04-08T02:11:37.603Z,927.62
2018-04-08T02:13:09.418Z,927.66
2018-04-08T02:14:41.232Z,927.66
2018-04-08T02:16:13.049Z,927.64
2018-04-08T02:17:46.372Z,927.74
2018-04-08T02:19:16.678Z,927.72
2018-04-08T02:20:48.494Z,927.70
2018-04-08T02:22:20.308Z,927.73
2018-04-08T02:23:52.223Z,927.75
2018-04-08T02:25:23.939Z,927.70
2018-04-08T02:26:55.754Z,927.66
2018-04-08T02:28:27.567Z,927.62
2018-04-08T02:29:59.385Z,927.59
2018-04-08T02:31:31.200Z,927.63
2018-04-08T02:33:03.014Z,927.60
2018-04-08T02:34:34.830Z,927.56
2018-04-08T02:36:06.744Z,927.59
2018-04-08T02:37:38.458Z,927.59
2018-04-08T02:39:10.274Z,927.60
2018-04-08T02:40:42.089Z,927.59
2018-04-08T02:42:13.910Z,927.62
2018-04-08T02:43:46.227Z,927.57
2018-04-08T02:45:17.539Z,927.61
2018-04-08T02:46:49.349Z,927.64
2018-04-08T02:48:21.166Z,927.64
2018-04-08T02:49:52.979Z,927.59
2018-04-08T02:51:24.795Z,927.56
2018-04-08T02:52:56.609Z,927.62
2018-04-08T02:54:28.624Z,927.60
2018-04-08T02:56:00.273Z,927.61
2018-04-08T02:57:32.054Z,927.60
2018-04-08T02:59:03.877Z,927.55
2018-04-08T03:00:35.682Z,927.58
2018-04-08T03:02:07.506Z,927.59
2018-04-08T03:03:39.312Z,927.60
2018-04-08T03:05:11.128Z,927.63
2018-04-08T03:06:42.942Z,927.62
2018-04-08T03:08:14.773Z,927.61
2018-04-08T03:09:46.600Z,927.60
2018-04-08T03:11:18.407Z,927.60
2018-04-08T03:12:50.299Z,927.58
2018-04-08T03:14:22.015Z,927.60
2018-04-08T03:15:53.828Z,927.59
2018-04-08T03:17:25.655Z,927.58
2018-04-08T03:18:57.460Z,927.55
2018-04-08T03:20:29.272Z,927.58
2018-04-08T03:22:01.087Z,927.61
2018-04-08T03:23:32.901Z,927.59
2018-04-08T03:25:04.817Z,927.60
2018-04-08T03:26:36.537Z,927.58
2018-04-08T03:28:08.344Z,927.59
2018-04-08T03:29:40.163Z,927.59
2018-04-08T03:31:12.074Z,927.62
2018-04-08T03:32:43.789Z,927.63
2018-04-08T03:34:15.603Z,927.54
2018-04-08T03:35:47.417Z,927.57
2018-04-08T03:37:19.232Z,927.59
2018-04-08T03:38:51.047Z,927.60
2018-04-08T03:40:22.871Z,927.62
2018-04-08T03:41:54.675Z,927.58
2018-04-08T03:43:26.489Z,927.57
2018-04-08T03:44:58.811Z,927.55
2018-04-08T03:46:30.120Z,927.56
2018-04-08T03:48:01.933Z,927.58
2018-04-08T03:49:33.848Z,927.55
2018-04-08T03:51:05.562Z,927.57
2018-04-08T03:52:37.377Z,927.53
2018-04-08T03:54:09.193Z,927.55
2018-04-08T03:55:41.106Z,927.51
2018-04-08T03:57:12.819Z,927.50
2018-04-08T03:58:44.634Z,927.52
2018-04-08T04:00:16.448Z,927.50
2018-04-08T04:01:48.262Z,927.47
2018-04-08T04:03:20.076Z,927.46
2018-04-08T04:04:51.891Z,927.47
2018-04-08T04:06:23.705Z,927.39
2018-04-08T04:07:55.619Z,927.40
2018-04-08T04:09:27.332Z,927.41
2018-04-08T04:10:59.147Z,927.45
2018-04-08T04:12:30.961Z,927.45
2018-04-08T04:14:02.776Z,927.40
2018-04-08T04:15:34.590Z,927.35
2018-04-08T04:17:06.404Z,927.33
2018-04-08T04:18:38.218Z,927.34
2018-04-08T04:20:10.033Z,927.36
2018-04-08T04:21:41.846Z,927.28
2018-04-08T04:23:13.660Z,927.33
2018-04-08T04:24:45.475Z,927.32
2018-04-08T04:26:17.489Z,927.27
2018-04-08T04:27:49.103Z,927.30
2018-04-08T04:29:20.916Z,927.25
2018-04-08T04:30:52.731Z,927.26
2018-04-08T04:32:24.544Z,927.26
2018-04-08T04:33:56.358Z,927.27
2018-04-08T04:35:28.172Z,927.29
2018-04-08T04:36:59.986Z,927.27
2018-04-08T04:38:31.800Z,927.26
2018-04-08T04:40:03.615Z,927.19
2018-04-08T04:41:35.433Z,927.18
2018-04-08T04:43:07.242Z,927.21
2018-04-08T04:44:39.157Z,927.20
2018-04-08T04:46:10.870Z,927.19
2018-04-08T04:47:42.684Z,927.18
2018-04-08T04:49:14.498Z,927.13
2018-04-08T04:50:46.310Z,927.12
2018-04-08T04:52:18.125Z,927.13
2018-04-08T04:53:49.939Z,927.14
2018-04-08T04:55:21.752Z,927.11
2018-04-08T04:56:53.667Z,927.12
2018-04-08T04:58:25.379Z,927.10
2018-04-08T04:59:57.193Z,927.04
2018-04-08T05:01:29.007Z,927.03
2018-04-08T05:03:00.921Z,927.04
2018-04-08T05:04:32.638Z,927.03
2018-04-08T05:06:04.453Z,927.05
2018-04-08T05:07:36.265Z,927.03
2018-04-08T05:09:08.077Z,927.06
2018-04-08T05:10:39.892Z,927.07
2018-04-08T05:12:11.705Z,927.12
2018-04-08T05:13:43.519Z,927.14
2018-04-08T05:15:15.334Z,927.11
2018-04-08T05:16:47.145Z,927.09
2018-04-08T05:18:18.959Z,927.10
2018-04-08T05:19:50.773Z,927.06
2018-04-08T05:21:22.687Z,927.08
2018-04-08T05:22:54.402Z,926.99
2018-04-08T05:24:26.215Z,927.03
2018-04-08T05:25:58.030Z,927.01
2018-04-08T05:27:29.854Z,926.97
2018-04-08T05:29:01.658Z,926.98
2018-04-08T05:30:33.477Z,926.98
2018-04-08T05:32:05.285Z,927.02
2018-04-08T05:33:37.100Z,926.99
2018-04-08T05:35:08.913Z,927.02
2018-04-08T05:36:40.728Z,926.95
2018-04-08T05:38:12.541Z,926.90
2018-04-08T05:39:44.760Z,926.94
2018-04-08T05:41:16.169Z,926.95
2018-04-08T05:42:47.983Z,927.00
2018-04-08T05:44:19.797Z,926.90
2018-04-08T05:45:51.861Z,926.89
2018-04-08T05:47:23.424Z,926.90
2018-04-08T05:48:55.237Z,926.93
2018-04-08T05:50:27.051Z,926.92
2018-04-08T05:51:58.864Z,926.94
2018-04-08T05:53:30.678Z,926.96
2018-04-08T05:55:02.493Z,926.94
2018-04-08T05:56:34.306Z,926.90
2018-04-08T05:58:06.336Z,926.92
2018-04-08T05:59:37.933Z,926.93
2018-04-08T06:01:09.746Z,926.98
2018-04-08T06:02:41.560Z,926.93
2018-04-08T06:04:13.373Z,926.93
2018-04-08T06:05:45.186Z,926.91
2018-04-08T06:07:16.999Z,926.89
2018-04-08T06:08:48.814Z,926.84
2018-04-08T06:10:20.627Z,926.84
2018-04-08T06:11:52.440Z,926.80
2018-04-08T06:13:24.252Z,926.77
2018-04-08T06:14:56.066Z,926.78
2018-04-08T06:16:28.232Z,926.74
2018-04-08T06:17:59.695Z,926.72
2018-04-08T06:19:31.512Z,926.75
2018-04-08T06:21:03.320Z,926.73
2018-04-08T06:22:35.132Z,926.70
2018-04-08T06:24:06.946Z,926.67
2018-04-08T06:25:38.759Z,926.62
2018-04-08T06:27:10.573Z,926.65
2018-04-08T06:28:42.487Z,926.63
2018-04-08T06:30:14.204Z,926.63
2018-04-08T06:31:46.014Z,926.60
2018-04-08T06:33:17.827Z,926.62
2018-04-08T06:34:49.745Z,926.55
2018-04-08T06:36:21.454Z,926.57
2018-04-08T06:37:53.268Z,926.55
2018-04-08T06:39:25.080Z,926.54
2018-04-08T06:40:56.894Z,926.53
2018-04-08T06:42:28.709Z,926.48
2018-04-08T06:44:00.521Z,926.45
2018-04-08T06:45:32.335Z,926.48
2018-04-08T06:47:04.148Z,926.49
2018-04-08T06:48:35.964Z,926.51
2018-04-08T06:50:07.775Z,926.49
2018-04-08T06:51:39.589Z,926.49
2018-04-08T06:53:11.501Z,926.48
2018-04-08T06:54:43.215Z,926.52
2018-04-08T06:56:15.028Z,926.50
2018-04-08T06:57:46.841Z,926.54
2018-04-08T06:59:18.755Z,926.56
2018-04-08T07:00:50.468Z,926.58
2018-04-08T07:02:22.281Z,926.56
2018-04-08T07:03:54.096Z,926.55
2018-04-08T07:06:57.722Z,926.54
2018-04-08T07:08:29.535Z,926.58
2018-04-08T07:10:01.348Z,926.54
2018-04-08T07:11:33.162Z,926.52
2018-04-08T07:13:05.076Z,926.54
2018-04-08T07:14:36.791Z,926.51
2018-04-08T07:16:08.602Z,926.51
2018-04-08T07:17:40.425Z,926.53
2018-04-08T07:19:12.480Z,926.54
2018-04-08T07:20:44.043Z,926.54
2018-04-08T07:22:15.856Z,926.56
2018-04-08T07:23:47.670Z,926.57
2018-04-08T07:25:19.482Z,926.54
2018-04-08T07:26:51.296Z,926.54
2018-04-08T07:28:23.109Z,926.60
2018-04-08T07:29:54.923Z,926.54
2018-04-08T07:31:26.936Z,926.52
2018-04-08T07:32:58.550Z,926.49
2018-04-08T07:34:30.362Z,926.49
2018-04-08T07:36:02.176Z,926.51
2018-04-08T07:37:33.990Z,926.55
2018-04-08T07:39:05.802Z,926.50
2018-04-08T07:40:37.615Z,926.51
2018-04-08T07:42:09.428Z,926.58
2018-04-08T07:43:41.245Z,926.55
2018-04-08T07:45:13.054Z,926.55
2018-04-08T07:46:44.868Z,926.58
2018-04-08T07:48:16.684Z,926.58
2018-04-08T07:49:48.594Z,926.62
2018-04-08T07:51:20.307Z,926.66
2018-04-08T07:52:52.119Z,926.67
2018-04-08T07:54:23.933Z,926.65
2018-04-08T07:55:55.746Z,926.64
2018-04-08T07:57:27.559Z,926.69
2018-04-08T07:58:59.372Z,926.70
2018-04-08T08:00:31.186Z,926.71
2018-04-08T08:02:03.099Z,926.73
2018-04-08T08:03:35.015Z,926.70
2018-04-08T08:05:06.626Z,926.73
2018-04-08T08:06:38.439Z,926.76
2018-04-08T08:08:10.506Z,926.75
2018-04-08T08:09:42.064Z,926.79
2018-04-08T08:11:13.915Z,926.83
2018-04-08T08:12:45.690Z,926.87
2018-04-08T08:14:17.503Z,926.82
2018-04-08T08:15:49.316Z,926.91
2018-04-08T08:17:21.129Z,926.84
2018-04-08T08:18:52.943Z,926.86
2018-04-08T08:20:24.856Z,926.90
2018-04-08T08:21:56.569Z,926.90
2018-04-08T08:23:28.383Z,926.92
2018-04-08T08:25:00.195Z,926.94
2018-04-08T08:26:32.111Z,926.91
2018-04-08T08:28:03.823Z,926.92
2018-04-08T08:29:35.635Z,926.94
2018-04-08T08:31:07.447Z,926.95
2018-04-08T08:32:39.361Z,927.03
2018-04-08T08:34:11.074Z,926.98
2018-04-08T08:35:42.887Z,927.02
2018-04-08T08:37:14.703Z,927.05
2018-04-08T08:38:46.513Z,927.07
2018-04-08T08:40:18.324Z,927.06
2018-04-08T08:41:50.137Z,927.09
2018-04-08T08:43:21.950Z,927.11
2018-04-08T08:44:53.863Z,927.13
2018-04-08T08:46:25.577Z,927.16
2018-04-08T08:47:57.389Z,927.21
2018-04-08T08:49:29.200Z,927.22
2018-04-08T08:51:01.115Z,927.27
2018-04-08T08:52:32.828Z,927.30
2018-04-08T08:54:04.640Z,927.27
2018-04-08T08:55:36.455Z,927.36
2018-04-08T08:57:08.270Z,927.39
2018-04-08T08:58:40.081Z,927.38
2018-04-08T09:00:11.894Z,927.38
2018-04-08T09:01:43.709Z,927.39
2018-04-08T09:03:15.721Z,927.40
2018-04-08T09:04:47.336Z,927.42
2018-04-08T09:06:19.159Z,927.42
2018-04-08T09:07:50.962Z,927.49
2018-04-08T09:09:22.774Z,927.47
2018-04-08T09:10:54.592Z,927.49
2018-04-08T09:12:26.402Z,927.52
2018-04-08T09:13:58.216Z,927.56
2018-04-08T09:15:30.030Z,927.56
2018-04-08T09:17:01.846Z,927.55
2018-04-08T09:18:33.657Z,927.59
2018-04-08T09:20:05.470Z,927.55
2018-04-08T09:21:37.635Z,927.63
2018-04-08T09:23:09.097Z,927.66
2018-04-08T09:24:40.911Z,927.67
2018-04-08T09:26:12.724Z,927.68
2018-04-08T09:27:44.538Z,927.71
2018-04-08T09:29:16.353Z,927.76
2018-04-08T09:30:48.167Z,927.77
2018-04-08T09:32:19.979Z,927.80
2018-04-08T09:33:51.894Z,927.83
2018-04-08T09:35:23.606Z,927.84
2018-04-08T09:36:55.420Z,927.83
2018-04-08T09:38:27.234Z,927.85
2018-04-08T09:39:59.147Z,927.90
2018-04-08T09:41:30.861Z,927.90
2018-04-08T09:43:02.675Z,927.91
2018-04-08T09:44:34.489Z,927.99
2018-04-08T09:46:06.303Z,928.03
2018-04-08T09:47:38.119Z,927.97
2018-04-08T09:49:09.933Z,928.01
2018-04-08T09:50:41.747Z,928.02
2018-04-08T09:52:13.812Z,928.03
2018-04-08T09:53:45.377Z,928.03
2018-04-08T09:55:17.191Z,928.05
2018-04-08T09:56:49.006Z,928.02
2018-04-08T09:58:21.172Z,928.09
2018-04-08T09:59:52.643Z,928.09
2018-04-08T10:01:24.451Z,928.17
2018-04-08T10:02:56.266Z,928.22
2018-04-08T10:04:28.081Z,928.17
2018-04-08T10:05:59.896Z,928.29
2018-04-08T10:07:31.711Z,928.28
2018-04-08T10:09:03.526Z,928.23
2018-04-08T10:10:35.341Z,928.25
2018-04-08T10:12:07.156Z,928.29
2018-04-08T10:15:10.787Z,928.36
2018-04-08T10:16:42.863Z,928.31
2018-04-08T10:18:14.938Z,928.40
2018-04-08T10:21:18.050Z,928.46
2018-04-08T10:22:50.115Z,928.46
2018-04-08T10:27:25.314Z,928.43
2018-04-08T10:28:57.128Z,928.48
2018-04-08T10:32:00.759Z,928.52
2018-04-08T10:33:32.582Z,928.60
2018-04-08T10:35:04.505Z,928.62
2018-04-08T10:36:36.208Z,928.64
2018-04-08T10:38:08.024Z,928.63
2018-04-08T10:39:39.854Z,928.60
2018-04-08T10:41:11.807Z,928.70
2018-04-08T10:42:43.474Z,928.71
2018-04-08T10:44:15.292Z,928.70
2018-04-08T10:48:50.741Z,928.72
2018-04-08T10:50:22.566Z,928.81
2018-04-08T10:51:54.376Z,928.84
2018-04-08T10:53:26.192Z,928.86
2018-04-08T10:54:58.110Z,928.88
2018-04-08T10:56:29.827Z,928.94
2018-04-08T10:58:01.644Z,928.92
2018-04-08T10:59:33.461Z,928.90
2018-04-08T11:01:05.278Z,928.92
2018-04-08T11:02:37.096Z,929.01
2018-04-08T11:05:40.731Z,929.02
2018-04-08T11:07:12.952Z,929.04
2018-04-08T11:08:44.363Z,929.09
2018-04-08T11:10:16.207Z,929.09
2018-04-08T11:11:48.003Z,929.14
2018-04-08T11:13:19.918Z,929.13
2018-04-08T11:14:51.638Z,929.15
2018-04-08T11:16:23.456Z,929.15
2018-04-08T11:17:55.577Z,929.11
2018-04-08T11:19:27.092Z,929.18
2018-04-08T11:20:59.115Z,929.19
2018-04-08T11:22:30.764Z,929.27
2018-04-08T11:24:02.550Z,929.38
2018-04-08T11:25:34.620Z,929.36
2018-04-08T11:27:06.212Z,929.33
2018-04-08T11:28:38.009Z,929.31
2018-04-08T11:30:09.854Z,929.35
2018-04-08T11:31:41.749Z,929.47
2018-04-08T11:33:13.470Z,929.47
2018-04-08T11:34:45.291Z,929.36
2018-04-08T11:36:17.111Z,929.37
2018-04-08T11:39:20.753Z,929.37
2018-04-08T11:40:52.575Z,929.52
2018-04-08T11:42:24.395Z,929.49
2018-04-08T11:43:56.216Z,929.44
2018-04-08T11:45:28.037Z,929.50
2018-04-08T11:48:31.678Z,929.55
2018-04-08T11:50:03.498Z,929.62
2018-04-08T11:51:35.425Z,929.67
2018-04-08T11:53:07.139Z,929.57
2018-04-08T11:54:38.962Z,929.60
2018-04-08T11:56:10.779Z,929.55
2018-04-08T11:57:42.611Z,929.65
2018-04-08T11:59:14.417Z,929.65
2018-04-08T12:00:46.285Z,929.66
2018-04-08T12:02:18.057Z,929.64
2018-04-08T12:03:50.080Z,929.61
2018-04-08T12:05:21.697Z,929.56
2018-04-08T12:08:25.336Z,929.69
2018-04-08T12:09:57.864Z,929.65
2018-04-08T12:11:28.975Z,929.71
2018-04-08T12:13:00.796Z,929.65
2018-04-08T12:14:32.617Z,929.69
2018-04-08T12:16:04.438Z,929.75
2018-04-08T12:17:36.271Z,929.69
2018-04-08T12:20:39.896Z,929.73
2018-04-08T12:22:11.718Z,929.65
2018-04-08T12:23:43.840Z,929.88
2018-04-08T12:25:15.357Z,929.73
2018-04-08T12:26:47.481Z,929.72
2018-04-08T12:28:19.109Z,929.66
2018-04-08T12:29:51.944Z,929.76
2018-04-08T12:31:22.659Z,929.84
2018-04-08T12:32:54.459Z,929.80
2018-04-08T12:34:26.280Z,929.72
2018-04-08T12:35:58.100Z,929.60
2018-04-08T12:37:29.920Z,929.58
2018-04-08T12:39:01.741Z,929.87
2018-04-08T12:40:33.662Z,929.79
2018-04-08T12:42:05.381Z,929.78
2018-04-08T12:43:37.721Z,929.76
2018-04-08T12:45:09.040Z,929.83
2018-04-08T12:46:40.944Z,929.70
2018-04-08T12:48:12.710Z,929.80
2018-04-08T12:49:44.487Z,929.89
2018-04-08T12:52:48.130Z,929.84
2018-04-08T12:54:19.952Z,929.87
2018-04-08T12:55:51.816Z,929.72
2018-04-08T12:57:23.599Z,929.62
2018-04-08T12:58:55.677Z,929.75
2018-04-08T13:00:27.287Z,929.87
2018-04-08T13:01:59.062Z,929.79
2018-04-08T13:03:31.129Z,930.00
2018-04-08T13:05:02.807Z,929.77
2018-04-08T13:06:34.528Z,929.77
2018-04-08T13:08:06.352Z,929.77
2018-04-08T13:09:38.175Z,929.80
2018-04-08T13:11:10.098Z,929.67
2018-04-08T13:12:41.820Z,929.75
2018-04-08T13:14:13.698Z,929.79
2018-04-08T13:17:17.288Z,929.74
2018-04-08T13:18:49.108Z,929.78
2018-04-08T13:20:20.989Z,929.86
2018-04-08T13:21:52.752Z,929.67
2018-04-08T13:23:24.979Z,929.67
2018-04-08T13:24:56.398Z,929.61
2018-04-08T13:26:28.220Z,929.45
2018-04-08T13:28:00.045Z,929.46
2018-04-08T13:29:32.385Z,929.46
2018-04-08T13:31:03.690Z,929.40
2018-04-08T13:34:07.338Z,929.53
2018-04-08T13:35:39.677Z,929.53
2018-04-08T13:38:42.803Z,929.33
2018-04-08T13:40:14.628Z,929.44
2018-04-08T13:41:46.648Z,929.64
2018-04-08T13:43:18.270Z,929.53
2018-04-08T13:44:50.092Z,929.53
2018-04-08T13:46:21.915Z,929.38
2018-04-08T13:47:53.737Z,929.53
2018-04-08T13:49:25.561Z,929.60
2018-04-08T13:52:29.204Z,929.26
2018-04-08T13:55:32.854Z,929.14
2018-04-08T13:57:04.675Z,929.22
2018-04-08T13:58:36.498Z,929.29
2018-04-08T14:00:08.322Z,929.16
2018-04-08T14:01:40.246Z,929.17
2018-04-08T14:03:11.973Z,929.17
2018-04-08T14:06:15.621Z,929.03
2018-04-08T14:07:47.747Z,929.15
2018-04-08T14:09:19.268Z,929.20
2018-04-08T14:10:51.394Z,929.15
2018-04-08T14:12:22.917Z,929.29
2018-04-08T14:13:54.887Z,929.24
2018-04-08T14:15:26.565Z,929.19
2018-04-08T14:16:58.415Z,929.06
2018-04-08T14:18:30.208Z,929.09
2018-04-08T14:20:02.134Z,929.01
2018-04-08T14:21:34.061Z,928.87
2018-04-08T14:23:05.986Z,928.96
2018-04-08T14:24:37.583Z,928.91
2018-04-08T14:26:09.541Z,929.06
2018-04-08T14:27:41.160Z,928.96
2018-04-08T14:29:12.982Z,928.87
2018-04-08T14:30:44.806Z,928.91
2018-04-08T14:32:16.633Z,929.12
2018-04-08T14:35:20.281Z,928.97
2018-04-08T14:36:52.109Z,928.96
2018-04-08T14:38:24.137Z,928.97
2018-04-08T14:39:55.758Z,928.97
2018-04-08T14:41:27.585Z,928.92
2018-04-08T14:42:59.714Z,928.85
2018-04-08T14:44:31.236Z,928.81
2018-04-08T14:46:03.581Z,928.77
2018-04-08T14:47:34.925Z,928.91
2018-04-08T14:49:07.642Z,928.84
2018-04-08T14:50:38.546Z,928.93
2018-04-08T14:52:10.374Z,929.02
2018-04-08T14:53:42.203Z,928.93
2018-04-08T14:55:14.030Z,928.95
2018-04-08T14:56:45.959Z,928.93
2018-04-08T14:58:17.688Z,928.83
2018-04-08T14:59:49.515Z,928.77
2018-04-08T15:04:25.001Z,928.83
2018-04-08T15:05:57.033Z,928.92
2018-04-08T15:07:28.961Z,928.77
2018-04-08T15:09:00.485Z,928.61
2018-04-08T15:10:32.414Z,928.61
2018-04-08T15:12:04.145Z,928.52
2018-04-08T15:13:35.971Z,928.57
2018-04-08T15:15:07.799Z,928.66
2018-04-08T15:16:39.727Z,928.65
2018-04-08T15:18:11.456Z,928.61
2018-04-08T15:19:43.488Z,928.66
2018-04-08T15:21:15.634Z,928.68
2018-04-08T15:24:18.772Z,928.59
2018-04-08T15:25:50.601Z,928.60
2018-04-08T15:27:22.430Z,928.62
2018-04-08T15:28:54.259Z,928.58
2018-04-08T15:30:26.088Z,928.50
2018-04-08T15:33:29.746Z,928.55
2018-04-08T15:35:01.578Z,928.53
2018-04-08T15:36:33.504Z,928.49
2018-04-08T15:38:05.234Z,928.37
2018-04-08T15:39:37.583Z,928.38
2018-04-08T15:41:09.095Z,928.24
2018-04-08T15:42:40.721Z,928.29
2018-04-08T15:44:12.549Z,928.20
2018-04-08T15:45:44.377Z,928.13
2018-04-08T15:47:16.204Z,928.18
2018-04-08T15:48:48.031Z,928.13
2018-04-08T15:50:19.856Z,928.25
2018-04-08T15:53:24.025Z,928.28
2018-04-08T15:56:27.769Z,928.28
2018-04-08T15:59:30.807Z,928.11
2018-04-08T16:02:34.458Z,928.01
2018-04-08T16:04:06.284Z,928.07
2018-04-08T16:07:09.938Z,928.06
2018-04-08T16:08:41.765Z,928.07
2018-04-08T16:10:13.591Z,928.04
2018-04-08T16:13:17.247Z,927.97
2018-04-08T16:14:49.478Z,927.94
2018-04-08T16:16:21.411Z,927.98
2018-04-08T16:20:56.393Z,927.78
2018-04-08T16:22:28.226Z,927.72
2018-04-08T16:24:00.052Z,927.70
2018-04-08T16:25:31.908Z,927.73
2018-04-08T16:27:03.707Z,927.64
2018-04-08T16:28:35.537Z,927.66
2018-04-08T16:31:39.190Z,927.62
2018-04-08T16:33:11.418Z,927.60
2018-04-08T16:34:42.843Z,927.55
2018-04-08T16:36:14.667Z,927.51
2018-04-08T16:39:18.318Z,927.46
2018-04-08T16:40:50.143Z,927.47
2018-04-08T16:42:21.968Z,927.45
2018-04-08T16:43:53.794Z,927.44
2018-04-08T16:45:25.719Z,927.42
2018-04-08T16:46:57.443Z,927.48
2018-04-08T16:48:29.268Z,927.46
2018-04-08T16:50:01.400Z,927.37
2018-04-08T16:51:33.537Z,927.42
2018-04-08T16:53:04.947Z,927.45
2018-04-08T16:54:36.570Z,927.41
2018-04-08T16:56:08.598Z,927.35
2018-04-08T16:57:40.224Z,927.33
2018-04-08T16:59:12.097Z,927.39
2018-04-08T17:00:43.877Z,927.33
2018-04-08T17:02:15.705Z,927.31
2018-04-08T17:03:47.533Z,927.33
2018-04-08T17:06:51.192Z,927.27
2018-04-08T17:08:23.019Z,927.24
2018-04-08T17:09:54.947Z,927.16
2018-04-08T17:11:26.674Z,927.05
2018-04-08T17:12:58.501Z,927.12
2018-04-08T17:14:30.328Z,927.00
2018-04-08T17:16:02.153Z,926.93
2018-04-08T17:17:33.982Z,926.96
2018-04-08T17:19:06.322Z,926.92
2018-04-08T17:22:09.605Z,926.93
2018-04-08T17:23:41.483Z,926.93
2018-04-08T17:25:13.408Z,926.88
2018-04-08T17:26:44.930Z,926.94
2018-04-08T17:28:17.005Z,926.85
2018-04-08T17:29:48.580Z,926.85
2018-04-08T17:31:20.403Z,926.76
2018-04-08T17:32:52.228Z,926.88
2018-04-08T17:34:24.303Z,926.87
2018-04-08T17:35:55.876Z,926.95
2018-04-08T17:37:27.701Z,927.06
2018-04-08T17:38:59.525Z,927.13
2018-04-08T17:42:03.376Z,926.98
2018-04-08T17:43:34.998Z,927.03
2018-04-08T17:46:38.644Z,926.92
2018-04-08T17:48:10.570Z,926.91
2018-04-08T17:49:42.292Z,926.83
2018-04-08T17:51:14.117Z,926.75
2018-04-08T17:52:45.950Z,926.72
2018-04-08T17:54:17.766Z,926.68
2018-04-08T17:55:49.793Z,926.76
2018-04-08T17:57:21.413Z,926.78
2018-04-08T17:58:53.238Z,926.68
2018-04-08T18:00:25.366Z,926.67
2018-04-08T18:01:56.885Z,926.62
2018-04-08T18:03:28.708Z,926.57
2018-04-08T18:05:00.529Z,926.63
2018-04-08T18:08:04.375Z,926.66
2018-04-08T18:09:35.999Z,926.67
2018-04-08T18:11:08.124Z,926.68
2018-04-08T18:12:39.643Z,926.61
2018-04-08T18:14:11.566Z,926.64
2018-04-08T18:15:43.493Z,926.61
2018-04-08T18:17:15.316Z,926.63
2018-04-08T18:20:18.770Z,926.61
2018-04-08T18:21:50.587Z,926.54
2018-04-08T18:23:22.410Z,926.59
2018-04-08T18:24:54.438Z,926.45
2018-04-08T18:27:58.084Z,926.45
2018-04-08T18:29:29.709Z,926.49
2018-04-08T18:31:01.736Z,926.35
2018-04-08T18:34:05.483Z,926.41
2018-04-08T18:35:37.523Z,926.43
2018-04-08T18:37:08.828Z,926.38
2018-04-08T18:38:40.651Z,926.41
2018-04-08T18:40:12.576Z,926.48
2018-04-08T18:41:44.297Z,926.40
2018-04-08T18:43:16.122Z,926.40
2018-04-08T18:44:47.942Z,926.39
2018-04-08T18:46:19.966Z,926.41
2018-04-08T18:47:51.588Z,926.41
2018-04-08T18:49:23.412Z,926.45
2018-04-08T18:50:55.437Z,926.42
2018-04-08T18:52:27.361Z,926.45
2018-04-08T18:53:58.886Z,926.38
2018-04-08T18:55:30.704Z,926.46
2018-04-08T18:57:02.527Z,926.48
2018-04-08T18:58:34.401Z,926.51
2018-04-08T19:00:06.174Z,926.45
2018-04-08T19:01:37.998Z,926.48
2018-04-08T19:04:42.047Z,926.56
2018-04-08T19:06:13.987Z,926.64
2018-04-08T19:07:45.290Z,926.60
2018-04-08T19:09:17.119Z,926.75
2018-04-08T19:12:20.759Z,926.63
2018-04-08T19:13:52.582Z,926.59
2018-04-08T19:15:24.406Z,926.61
2018-04-08T19:16:56.228Z,926.63
2018-04-08T19:18:28.152Z,926.67
2018-04-08T19:20:00.078Z,926.62
2018-04-08T19:23:03.520Z,926.72
2018-04-08T19:27:39.390Z,926.54
2018-04-08T19:29:10.809Z,926.59
2018-04-08T19:30:42.630Z,926.62
2018-04-08T19:33:46.277Z,926.87
2018-04-08T19:35:18.100Z,926.79
2018-04-08T19:36:49.919Z,926.77
2018-04-08T19:38:22.043Z,926.75
2018-04-08T19:39:53.561Z,926.67
2018-04-08T19:41:25.685Z,926.73
2018-04-08T19:44:29.331Z,926.75
2018-04-08T19:46:00.945Z,926.74
2018-04-08T19:47:32.667Z,926.73
2018-04-08T19:49:04.488Z,926.82
2018-04-08T19:50:36.524Z,926.75
2018-04-08T19:52:08.133Z,926.77
2018-04-08T19:53:39.951Z,926.80
2018-04-08T19:55:11.774Z,926.80
2018-04-08T19:58:15.414Z,926.76
2018-04-08T19:59:47.437Z,926.79
2018-04-08T20:01:19.575Z,926.91
2018-04-08T20:02:50.877Z,926.91
2018-04-08T20:04:22.864Z,926.84
2018-04-08T20:05:54.518Z,926.87
2018-04-08T20:07:26.337Z,926.86
2018-04-08T20:08:58.196Z,926.94
2018-04-08T20:10:30.229Z,926.89
2018-04-08T20:12:01.800Z,926.84
2018-04-08T20:13:33.620Z,926.92
2018-04-08T20:16:37.464Z,926.87
2018-04-08T20:18:09.387Z,926.83
2018-04-08T20:19:40.950Z,926.78
2018-04-08T20:21:12.724Z,926.80
2018-04-08T20:22:44.741Z,926.85
2018-04-08T20:24:16.359Z,926.87
2018-04-08T20:25:48.381Z,926.82
2018-04-08T20:27:19.997Z,926.81
2018-04-08T20:28:51.816Z,926.79